Time;durP1;ratioP1;P1;durP2;ratioP2;P2;SDS_P1;SDS_P2;PMS_P1;PMS_P2;Temp;Humidity;BMP_temperature;BMP_pressure;BME280_temperature;BME280_humidity;BME280_pressure;Samples;Min_cycle;Max_cycle;Signal;HPM_P1;HPM_P2
2022/07/25 00:01:51;;;;;;;10.00;8.60;;;;;;;;;;5041213;28;20197;-71
2022/07/25 00:04:19;;;;;;;8.68;8.05;;;;;;;;;;5041365;28;20301;-71
2022/07/25 00:06:45;;;;;;;8.73;8.02;;;;;;;;;;5040785;28;20517;-71
2022/07/25 00:09:11;;;;;;;11.13;9.70;;;;;;;;;;5041040;28;20220;-71
2022/07/25 00:11:38;;;;;;;9.18;8.38;;;;;;;;;;5041169;28;20197;-71
2022/07/25 00:14:04;;;;;;;9.65;8.75;;;;;;;;;;5041083;28;20246;-71
2022/07/25 00:16:30;;;;;;;9.65;8.75;;;;;;;;;;5040857;28;20197;-71
2022/07/25 00:18:56;;;;;;;8.95;8.10;;;;;;;;;;5040968;28;20412;-69
2022/07/25 00:21:24;;;;;;;9.02;8.23;;;;;;;;;;5040750;28;20201;-71
2022/07/25 00:23:51;;;;;;;8.32;7.68;;;;;;;;;;5040629;28;20204;-71
2022/07/25 00:26:17;;;;;;;8.95;8.25;;;;;;;;;;5040667;28;20216;-71
2022/07/25 00:28:43;;;;;;;8.15;7.45;;;;;;;;;;5040715;28;20198;-71
2022/07/25 00:31:09;;;;;;;8.60;7.75;;;;;;;;;;5040785;28;20377;-69
2022/07/25 00:33:36;;;;;;;8.30;7.53;;;;;;;;;;5041250;28;20201;-71
2022/07/25 00:36:02;;;;;;;8.00;7.40;;;;;;;;;;5041008;28;20205;-71
2022/07/25 00:38:30;;;;;;;10.05;7.50;;;;;;;;;;5040465;28;20224;-71
2022/07/25 00:40:56;;;;;;;8.23;7.72;;;;;;;;;;5040725;28;20269;-71
2022/07/25 00:43:22;;;;;;;8.20;7.60;;;;;;;;;;5040654;28;20197;-71
2022/07/25 00:45:48;;;;;;;8.43;7.63;;;;;;;;;;5040635;28;20242;-71
2022/07/25 00:48:15;;;;;;;8.20;7.60;;;;;;;;;;5040247;28;20200;-71
2022/07/25 00:50:41;;;;;;;9.65;8.18;;;;;;;;;;5040333;28;20189;-71
2022/07/25 00:53:07;;;;;;;8.52;7.82;;;;;;;;;;5040372;28;20246;-70
2022/07/25 00:55:35;;;;;;;8.50;7.80;;;;;;;;;;5040627;28;20201;-71
2022/07/25 00:58:01;;;;;;;8.98;8.10;;;;;;;;;;5040202;28;20265;-71
2022/07/25 01:00:27;;;;;;;8.35;7.70;;;;;;;;;;5040623;28;20205;-71
2022/07/25 01:02:54;;;;;;;8.27;7.53;;;;;;;;;;5040123;28;20217;-71
2022/07/25 01:05:20;;;;;;;8.38;7.70;;;;;;;;;;5039976;28;20252;-71
2022/07/25 01:07:47;;;;;;;8.68;7.70;;;;;;;;;;5040101;28;20229;-71
2022/07/25 01:10:13;;;;;;;8.32;7.72;;;;;;;;;;5040004;28;20205;-71
2022/07/25 01:12:51;;;;;;;9.00;7.88;;;;;;;;;;5040106;28;20496;-71
2022/07/25 01:15:17;;;;;;;8.73;7.88;;;;;;;;;;5039261;28;20204;-71
2022/07/25 01:17:43;;;;;;;10.23;8.10;;;;;;;;;;5039562;28;20217;-71
2022/07/25 01:20:15;;;;;;;9.10;8.27;;;;;;;;;;5039807;28;20198;-71
2022/07/25 01:22:41;;;;;;;9.13;8.20;;;;;;;;;;5040112;28;20562;-71
2022/07/25 01:25:08;;;;;;;9.18;8.43;;;;;;;;;;5039548;28;20513;-71
2022/07/25 01:27:34;;;;;;;8.45;7.75;;;;;;;;;;5039548;28;20215;-71
2022/07/25 01:30:00;;;;;;;9.02;8.23;;;;;;;;;;5039792;28;20198;-71
2022/07/25 01:32:26;;;;;;;8.57;8.00;;;;;;;;;;5039818;28;20197;-71
2022/07/25 01:34:53;;;;;;;8.07;7.47;;;;;;;;;;5039757;28;20201;-71
2022/07/25 01:37:20;;;;;;;8.63;7.72;;;;;;;;;;5039431;28;20205;-71
2022/07/25 01:39:46;;;;;;;8.40;7.78;;;;;;;;;;5039491;28;20201;-71
2022/07/25 01:42:13;;;;;;;8.88;8.18;;;;;;;;;;5039823;28;20201;-71
2022/07/25 01:44:39;;;;;;;10.40;8.25;;;;;;;;;;5039833;28;20201;-71
2022/07/25 01:47:06;;;;;;;9.30;8.60;;;;;;;;;;5039351;28;20242;-71
2022/07/25 01:49:32;;;;;;;10.07;8.40;;;;;;;;;;5039718;28;20426;-71
2022/07/25 01:51:58;;;;;;;8.55;7.90;;;;;;;;;;5039526;28;20242;-71
2022/07/25 01:54:26;;;;;;;8.95;8.13;;;;;;;;;;5039409;28;20232;-71
2022/07/25 01:56:53;;;;;;;9.07;8.25;;;;;;;;;;5039452;28;20242;-71
2022/07/25 01:59:19;;;;;;;8.57;7.72;;;;;;;;;;5039618;28;20221;-71
2022/07/25 02:01:45;;;;;;;8.48;7.80;;;;;;;;;;5039683;28;20648;-71
2022/07/25 02:04:11;;;;;;;10.05;9.02;;;;;;;;;;5039418;28;20209;-71
2022/07/25 02:06:40;;;;;;;8.90;8.10;;;;;;;;;;5039013;28;20217;-71
2022/07/25 02:09:06;;;;;;;9.07;8.25;;;;;;;;;;5039059;28;20197;-71
2022/07/25 02:11:34;;;;;;;9.52;8.63;;;;;;;;;;5039557;28;20539;-69
2022/07/25 02:14:00;;;;;;;10.25;8.75;;;;;;;;;;5039719;28;20410;-68
2022/07/25 02:16:27;;;;;;;8.52;7.88;;;;;;;;;;5039355;28;20293;-70
2022/07/25 02:18:53;;;;;;;10.80;9.70;;;;;;;;;;5038875;28;20241;-71
2022/07/25 02:21:20;;;;;;;9.77;8.90;;;;;;;;;;5039012;28;20197;-71
2022/07/25 02:23:46;;;;;;;9.77;8.77;;;;;;;;;;5038993;28;20210;-71
2022/07/25 02:26:13;;;;;;;9.88;8.88;;;;;;;;;;5038903;28;20197;-71
2022/07/25 02:28:40;;;;;;;11.38;9.27;;;;;;;;;;5038940;28;20206;-71
2022/07/25 02:31:07;;;;;;;9.88;8.88;;;;;;;;;;5039018;28;20497;-71
2022/07/25 02:33:33;;;;;;;10.05;9.25;;;;;;;;;;5038829;28;20197;-71
2022/07/25 02:35:59;;;;;;;11.18;8.75;;;;;;;;;;5040012;28;20205;-71
2022/07/25 02:38:26;;;;;;;11.57;8.55;;;;;;;;;;5042304;28;20233;-71
2022/07/25 02:40:52;;;;;;;11.57;8.88;;;;;;;;;;5042532;28;20198;-71
2022/07/25 02:43:19;;;;;;;9.63;8.75;;;;;;;;;;5042202;28;20209;-71
2022/07/25 02:45:47;;;;;;;10.77;9.73;;;;;;;;;;5042425;28;20306;-71
2022/07/25 02:48:13;;;;;;;8.57;7.78;;;;;;;;;;5041964;28;20224;-71
2022/07/25 02:50:40;;;;;;;9.60;8.65;;;;;;;;;;5042208;28;20272;-71
2022/07/25 02:53:06;;;;;;;9.88;8.98;;;;;;;;;;5042168;28;20206;-71
2022/07/25 02:55:32;;;;;;;9.95;9.07;;;;;;;;;;5042365;28;20235;-71
2022/07/25 02:57:58;;;;;;;10.10;9.25;;;;;;;;;;5042355;28;20197;-71
2022/07/25 03:00:25;;;;;;;9.80;9.05;;;;;;;;;;5042131;28;20197;-71
2022/07/25 03:02:52;;;;;;;10.00;9.07;;;;;;;;;;5042213;28;20202;-71
2022/07/25 03:05:19;;;;;;;9.80;8.98;;;;;;;;;;5042288;28;20217;-71
2022/07/25 03:07:45;;;;;;;12.35;8.70;;;;;;;;;;5041677;28;20206;-71
2022/07/25 03:10:12;;;;;;;9.95;8.90;;;;;;;;;;5041994;28;20265;-71
2022/07/25 03:12:39;;;;;;;9.25;8.52;;;;;;;;;;5041963;28;20190;-71
2022/07/25 03:15:07;;;;;;;9.55;8.75;;;;;;;;;;5041953;28;20553;-71
2022/07/25 03:17:33;;;;;;;9.25;8.65;;;;;;;;;;5041369;28;20215;-71
2022/07/25 03:20:01;;;;;;;9.75;8.95;;;;;;;;;;5041589;28;20423;-71
2022/07/25 03:22:27;;;;;;;9.85;9.00;;;;;;;;;;5041937;28;20205;-70
2022/07/25 03:24:53;;;;;;;9.68;8.70;;;;;;;;;;5041874;28;20198;-71
2022/07/25 03:27:19;;;;;;;9.63;8.73;;;;;;;;;;5041676;28;20201;-71
2022/07/25 03:29:46;;;;;;;10.63;9.73;;;;;;;;;;5041702;28;20221;-71
2022/07/25 03:32:12;;;;;;;11.20;10.02;;;;;;;;;;5041753;28;20201;-71
2022/07/25 03:34:39;;;;;;;9.73;8.82;;;;;;;;;;5041822;28;20542;-71
2022/07/25 03:37:06;;;;;;;9.68;8.88;;;;;;;;;;5041401;28;20202;-71
2022/07/25 03:39:33;;;;;;;9.88;8.88;;;;;;;;;;5041657;28;20542;-71
2022/07/25 03:41:59;;;;;;;9.93;9.00;;;;;;;;;;5041696;28;20430;-71
2022/07/25 03:44:25;;;;;;;9.63;8.55;;;;;;;;;;5041742;28;20235;-71
2022/07/25 03:46:52;;;;;;;10.65;9.68;;;;;;;;;;5040780;28;20213;-71
2022/07/25 03:49:18;;;;;;;9.00;8.23;;;;;;;;;;5041404;28;20497;-71
2022/07/25 03:51:44;;;;;;;9.45;8.55;;;;;;;;;;5041516;28;20202;-71
2022/07/25 03:54:13;;;;;;;9.70;8.90;;;;;;;;;;5041480;28;20205;-71
2022/07/25 03:56:40;;;;;;;9.95;9.02;;;;;;;;;;5040925;28;20198;-71
2022/07/25 03:59:07;;;;;;;10.32;9.38;;;;;;;;;;5041433;28;20194;-71
2022/07/25 04:01:33;;;;;;;9.40;8.48;;;;;;;;;;5041050;28;20529;-71
2022/07/25 04:04:00;;;;;;;10.35;9.35;;;;;;;;;;5041368;28;20197;-71
2022/07/25 04:06:26;;;;;;;10.60;9.50;;;;;;;;;;5040967;28;20447;-71
2022/07/25 04:08:53;;;;;;;9.95;9.13;;;;;;;;;;5041266;28;20255;-71
2022/07/25 04:11:20;;;;;;;10.88;9.93;;;;;;;;;;5041120;28;20373;-71
2022/07/25 04:13:47;;;;;;;10.57;9.57;;;;;;;;;;5041083;28;20259;-71
2022/07/25 04:16:13;;;;;;;10.05;9.15;;;;;;;;;;5040671;28;20198;-69
2022/07/25 04:18:39;;;;;;;10.10;9.30;;;;;;;;;;5041113;28;20255;-69
2022/07/25 04:21:06;;;;;;;11.02;9.45;;;;;;;;;;5040753;28;20198;-69
2022/07/25 04:23:33;;;;;;;10.20;9.32;;;;;;;;;;5041002;28;20243;-69
2022/07/25 04:25:59;;;;;;;11.23;10.13;;;;;;;;;;5040983;28;20243;-69
2022/07/25 04:28:27;;;;;;;10.40;9.45;;;;;;;;;;5040735;28;20217;-69
2022/07/25 04:30:53;;;;;;;10.25;9.35;;;;;;;;;;5040762;28;20202;-69
2022/07/25 04:33:20;;;;;;;11.13;10.02;;;;;;;;;;5040825;28;20240;-69
2022/07/25 04:35:46;;;;;;;10.70;9.68;;;;;;;;;;5040906;28;20272;-69
2022/07/25 04:38:13;;;;;;;10.10;9.30;;;;;;;;;;5040543;28;20198;-69
2022/07/25 04:40:39;;;;;;;10.85;9.90;;;;;;;;;;5040857;28;20235;-69
2022/07/25 04:43:05;;;;;;;10.23;9.32;;;;;;;;;;5040579;28;20202;-69
2022/07/25 04:45:33;;;;;;;10.35;9.55;;;;;;;;;;5040448;28;20210;-69
2022/07/25 04:47:59;;;;;;;10.45;9.55;;;;;;;;;;5040624;28;20204;-69
2022/07/25 04:50:26;;;;;;;10.57;9.57;;;;;;;;;;5040422;28;20263;-69
2022/07/25 04:52:52;;;;;;;10.38;9.55;;;;;;;;;;5040482;28;20205;-69
2022/07/25 04:55:18;;;;;;;10.35;9.38;;;;;;;;;;5040317;28;20202;-69
2022/07/25 04:57:45;;;;;;;10.77;9.80;;;;;;;;;;5039834;28;20427;-69
2022/07/25 05:00:13;;;;;;;11.70;10.38;;;;;;;;;;5039600;28;20216;-69
2022/07/25 05:02:41;;;;;;;12.55;10.50;;;;;;;;;;5040062;28;20198;-69
2022/07/25 05:05:08;;;;;;;10.85;9.90;;;;;;;;;;5040150;28;20255;-69
2022/07/25 05:07:34;;;;;;;11.73;10.50;;;;;;;;;;5039956;28;20205;-69
2022/07/25 05:10:01;;;;;;;14.57;10.50;;;;;;;;;;5040194;28;20247;-69
2022/07/25 05:12:27;;;;;;;12.15;11.10;;;;;;;;;;5040030;28;20204;-69
2022/07/25 05:14:53;;;;;;;12.30;11.00;;;;;;;;;;5039993;28;20202;-69
2022/07/25 05:17:20;;;;;;;14.43;12.07;;;;;;;;;;5040069;28;20205;-69
2022/07/25 05:19:47;;;;;;;17.42;11.25;;;;;;;;;;5040175;28;20282;-70
2022/07/25 05:22:14;;;;;;;12.52;11.32;;;;;;;;;;5040162;28;20194;-69
2022/07/25 05:24:40;;;;;;;12.57;11.10;;;;;;;;;;5040471;28;20201;-69
2022/07/25 05:27:06;;;;;;;11.70;10.50;;;;;;;;;;5039707;28;20209;-69
2022/07/25 05:29:32;;;;;;;11.73;10.65;;;;;;;;;;5039737;28;20225;-69
2022/07/25 05:31:59;;;;;;;11.48;10.43;;;;;;;;;;5039905;28;20198;-69
2022/07/25 05:34:25;;;;;;;12.63;10.85;;;;;;;;;;5039770;28;20197;-69
2022/07/25 05:36:53;;;;;;;12.10;10.85;;;;;;;;;;5039734;28;20543;-68
2022/07/25 05:39:19;;;;;;;12.70;10.95;;;;;;;;;;5039831;28;20193;-68
2022/07/25 05:41:45;;;;;;;12.10;10.82;;;;;;;;;;5039717;28;20202;-68
2022/07/25 05:44:12;;;;;;;15.15;11.25;;;;;;;;;;5039787;28;20197;-68
2022/07/25 05:46:38;;;;;;;12.63;9.95;;;;;;;;;;5029363;28;20206;-63
2022/07/25 05:49:04;;;;;;;10.95;9.80;;;;;;;;;;5031207;28;20232;-63
2022/07/25 05:51:30;;;;;;;11.68;10.48;;;;;;;;;;5026261;28;20498;-63
2022/07/25 05:53:58;;;;;;;12.35;11.13;;;;;;;;;;5030015;28;20217;-63
2022/07/25 05:56:24;;;;;;;11.80;10.63;;;;;;;;;;5030504;28;20210;-63
2022/07/25 05:58:50;;;;;;;14.95;11.77;;;;;;;;;;5033582;28;20437;-63
2022/07/25 06:01:17;;;;;;;12.23;11.00;;;;;;;;;;5034168;28;20217;-63
2022/07/25 06:03:44;;;;;;;13.00;11.63;;;;;;;;;;5033836;28;20209;-63
2022/07/25 06:06:10;;;;;;;14.02;11.30;;;;;;;;;;5103953;28;20659;-63
2022/07/25 06:08:37;;;;;;;13.25;10.93;;;;;;;;;;5122744;27;20213;-63
2022/07/25 06:11:04;;;;;;;14.55;12.30;;;;;;;;;;5034091;27;20258;-63
2022/07/25 06:13:31;;;;;;;14.13;11.07;;;;;;;;;;5034801;28;20250;-63
2022/07/25 06:15:57;;;;;;;12.43;10.98;;;;;;;;;;5032985;28;20280;-63
2022/07/25 06:18:24;;;;;;;13.23;11.85;;;;;;;;;;5033012;28;20213;-63
2022/07/25 06:20:50;;;;;;;12.60;10.82;;;;;;;;;;5031036;28;20269;-63
2022/07/25 06:23:17;;;;;;;15.18;11.27;;;;;;;;;;5034239;28;20217;-62
2022/07/25 06:25:43;;;;;;;11.80;10.57;;;;;;;;;;5034918;28;20529;-62
2022/07/25 06:28:13;;;;;;;11.02;10.02;;;;;;;;;;5034472;27;20212;-62
2022/07/25 06:30:39;;;;;;;14.32;10.65;;;;;;;;;;5032641;28;20233;-62
2022/07/25 06:33:05;;;;;;;14.93;10.60;;;;;;;;;;5036515;27;20217;-62
2022/07/25 06:35:32;;;;;;;10.88;9.88;;;;;;;;;;5033319;28;20221;-62
2022/07/25 06:37:58;;;;;;;10.93;10.02;;;;;;;;;;5031957;28;20461;-62
2022/07/25 06:40:24;;;;;;;16.70;10.05;;;;;;;;;;5033642;28;20234;-62
2022/07/25 06:42:51;;;;;;;12.93;10.90;;;;;;;;;;5049267;27;20209;-61
2022/07/25 06:45:18;;;;;;;11.05;9.85;;;;;;;;;;5034876;28;20221;-63
2022/07/25 06:47:45;;;;;;;11.02;9.93;;;;;;;;;;5033114;28;20259;-63
2022/07/25 06:50:12;;;;;;;15.63;13.73;;;;;;;;;;5033225;28;20237;-63
2022/07/25 06:52:39;;;;;;;17.23;15.15;;;;;;;;;;5033281;28;20228;-63
2022/07/25 06:55:06;;;;;;;12.35;10.95;;;;;;;;;;5033283;28;20521;-62
2022/07/25 06:57:32;;;;;;;12.43;11.13;;;;;;;;;;5033264;28;20258;-62
2022/07/25 06:59:59;;;;;;;11.40;10.20;;;;;;;;;;5034812;28;20208;-62
2022/07/25 07:02:26;;;;;;;14.00;9.90;;;;;;;;;;5032307;28;20236;-63
2022/07/25 07:04:53;;;;;;;11.40;10.30;;;;;;;;;;5034358;28;20345;-61
2022/07/25 07:07:19;;;;;;;11.60;10.00;;;;;;;;;;5033313;28;20217;-62
2022/07/25 07:09:45;;;;;;;11.05;10.15;;;;;;;;;;5035048;27;20229;-62
2022/07/25 07:12:11;;;;;;;10.90;9.95;;;;;;;;;;5038560;27;20397;-65
2022/07/25 07:14:38;;;;;;;14.20;11.00;;;;;;;;;;5033451;28;20551;-62
2022/07/25 07:17:04;;;;;;;13.73;11.45;;;;;;;;;;5035626;28;20396;-62
2022/07/25 07:19:32;;;;;;;11.82;10.77;;;;;;;;;;5035866;28;20224;-62
2022/07/25 07:21:58;;;;;;;16.15;10.93;;;;;;;;;;5032693;28;20246;-63
2022/07/25 07:24:24;;;;;;;11.70;10.50;;;;;;;;;;5035284;28;20258;-62
2022/07/25 07:26:50;;;;;;;12.38;11.18;;;;;;;;;;5037336;28;20206;-62
2022/07/25 07:29:17;;;;;;;13.95;11.77;;;;;;;;;;5035609;28;20221;-62
2022/07/25 07:31:43;;;;;;;15.05;10.63;;;;;;;;;;5035595;28;20209;-64
2022/07/25 07:34:10;;;;;;;12.15;10.73;;;;;;;;;;5039698;27;20202;-63
2022/07/25 07:36:37;;;;;;;12.73;10.63;;;;;;;;;;5040383;27;20209;-62
2022/07/25 07:39:03;;;;;;;13.40;10.45;;;;;;;;;;5038250;27;20201;-62
2022/07/25 07:41:30;;;;;;;10.90;9.75;;;;;;;;;;5050355;27;20577;-62
2022/07/25 07:43:56;;;;;;;13.43;10.38;;;;;;;;;;5036395;28;20209;-63
2022/07/25 07:46:22;;;;;;;12.32;10.10;;;;;;;;;;5035649;28;20205;-62
2022/07/25 07:48:48;;;;;;;12.73;10.55;;;;;;;;;;5036369;27;20269;-62
2022/07/25 07:51:15;;;;;;;11.43;10.10;;;;;;;;;;5036314;28;20472;-63
2022/07/25 07:56:26;;;;;;;12.15;10.95;;;;;;;;;;5035398;28;20263;-62
2022/07/25 07:58:52;;;;;;;13.50;10.45;;;;;;;;;;5036255;28;20244;-62
2022/07/25 08:01:19;;;;;;;13.65;9.80;;;;;;;;;;5035785;28;20205;-62
2022/07/25 08:03:45;;;;;;;12.00;10.75;;;;;;;;;;5035393;28;20213;-62
2022/07/25 08:06:11;;;;;;;12.80;9.45;;;;;;;;;;5035747;28;20236;-63
2022/07/25 08:08:38;;;;;;;13.30;10.63;;;;;;;;;;5036533;27;20530;-63
2022/07/25 08:11:06;;;;;;;11.30;10.15;;;;;;;;;;5035337;28;20243;-62
2022/07/25 08:13:32;;;;;;;11.18;10.10;;;;;;;;;;5035709;28;20210;-63
2022/07/25 08:15:59;;;;;;;11.23;10.13;;;;;;;;;;5034737;28;20209;-62
2022/07/25 08:18:28;;;;;;;11.13;10.00;;;;;;;;;;5035844;27;20224;-62
2022/07/25 08:20:54;;;;;;;12.50;10.05;;;;;;;;;;5051277;27;20212;-63
2022/07/25 08:23:21;;;;;;;10.75;9.73;;;;;;;;;;5035180;28;20213;-63
2022/07/25 08:25:47;;;;;;;13.95;10.85;;;;;;;;;;5035315;28;20232;-64
2022/07/25 08:28:15;;;;;;;11.60;10.38;;;;;;;;;;5034256;28;20224;-64
2022/07/25 08:30:41;;;;;;;13.00;9.82;;;;;;;;;;5034660;28;20233;-64
2022/07/25 08:33:11;;;;;;;10.77;9.82;;;;;;;;;;5034100;28;20210;-64
2022/07/25 08:35:38;;;;;;;10.30;9.30;;;;;;;;;;5034799;28;20579;-63
2022/07/25 08:38:05;;;;;;;10.57;9.18;;;;;;;;;;5035007;28;20208;-62
2022/07/25 08:40:32;;;;;;;10.80;9.80;;;;;;;;;;5034418;28;20205;-63
2022/07/25 08:42:58;;;;;;;10.52;9.48;;;;;;;;;;5034678;28;20478;-64
2022/07/25 08:45:27;;;;;;;10.65;9.57;;;;;;;;;;5034711;28;20209;-63
2022/07/25 08:47:54;;;;;;;10.77;9.63;;;;;;;;;;5035659;28;20209;-63
2022/07/25 08:50:21;;;;;;;9.90;9.07;;;;;;;;;;5034576;28;20552;-63
2022/07/25 08:52:48;;;;;;;10.65;9.85;;;;;;;;;;5034948;28;20216;-62
2022/07/25 08:55:18;;;;;;;11.20;10.00;;;;;;;;;;5034744;28;20508;-62
2022/07/25 08:57:45;;;;;;;15.25;10.20;;;;;;;;;;5035290;28;20303;-63
2022/07/25 09:00:12;;;;;;;10.77;9.88;;;;;;;;;;5034929;28;20209;-62
2022/07/25 09:02:40;;;;;;;10.93;10.02;;;;;;;;;;5035262;28;20213;-62
2022/07/25 09:05:08;;;;;;;11.07;9.13;;;;;;;;;;5045050;27;20226;-64
2022/07/25 09:07:35;;;;;;;10.60;9.60;;;;;;;;;;5034631;28;20216;-63
2022/07/25 09:10:11;;;;;;;9.95;9.23;;;;;;;;;;5034079;28;20423;-63
2022/07/25 09:12:38;;;;;;;9.52;8.60;;;;;;;;;;5035487;28;20457;-63
2022/07/25 09:15:04;;;;;;;16.15;8.85;;;;;;;;;;5035101;28;20209;-63
2022/07/25 09:17:31;;;;;;;9.20;8.50;;;;;;;;;;5034434;28;20519;-63
2022/07/25 09:19:58;;;;;;;9.05;8.13;;;;;;;;;;5034962;28;20509;-65
2022/07/25 09:22:25;;;;;;;9.50;8.35;;;;;;;;;;5034368;28;20304;-64
2022/07/25 09:24:51;;;;;;;8.38;7.88;;;;;;;;;;5034592;28;20209;-64
2022/07/25 09:27:17;;;;;;;13.93;8.48;;;;;;;;;;5034434;28;20213;-62
2022/07/25 09:29:44;;;;;;;9.68;8.63;;;;;;;;;;5034771;28;20246;-63
2022/07/25 09:32:15;;;;;;;8.48;7.88;;;;;;;;;;5033865;28;20405;-61
2022/07/25 09:34:42;;;;;;;8.38;7.57;;;;;;;;;;5034514;28;20237;-61
2022/07/25 09:37:11;;;;;;;8.80;8.02;;;;;;;;;;5034089;28;20559;-61
2022/07/25 09:39:40;;;;;;;8.30;7.55;;;;;;;;;;5034756;28;20209;-62
2022/07/25 09:42:16;;;;;;;8.20;7.43;;;;;;;;;;5038130;27;20247;-62
2022/07/25 09:44:42;;;;;;;8.25;7.50;;;;;;;;;;5032906;28;20748;-70
2022/07/25 09:47:12;;;;;;;7.70;7.00;;;;;;;;;;5034683;28;20444;-68
2022/07/25 09:49:40;;;;;;;6.72;6.22;;;;;;;;;;5033386;28;20205;-71
2022/07/25 09:52:06;;;;;;;6.97;6.30;;;;;;;;;;5034155;28;20227;-69
2022/07/25 09:54:34;;;;;;;8.50;7.30;;;;;;;;;;5033730;28;20262;-69
2022/07/25 09:57:01;;;;;;;7.10;6.60;;;;;;;;;;5034557;28;20280;-69
2022/07/25 09:59:28;;;;;;;7.53;6.93;;;;;;;;;;5033502;28;20213;-68
2022/07/25 10:02:00;;;;;;;8.15;7.53;;;;;;;;;;5034554;28;20205;-69
2022/07/25 10:04:32;;;;;;;7.25;6.55;;;;;;;;;;5033852;28;20548;-69
2022/07/25 10:07:03;;;;;;;6.72;6.32;;;;;;;;;;5034101;28;20209;-69
2022/07/25 10:09:30;;;;;;;7.32;6.72;;;;;;;;;;5033817;28;20209;-69
2022/07/25 10:12:04;;;;;;;8.73;7.00;;;;;;;;;;5030334;28;20225;-69
2022/07/25 10:14:30;;;;;;;7.22;6.70;;;;;;;;;;5033597;28;20552;-70
2022/07/25 10:16:57;;;;;;;7.03;6.45;;;;;;;;;;5033896;28;20403;-69
2022/07/25 10:19:35;;;;;;;8.35;7.55;;;;;;;;;;5034716;28;20225;-69
2022/07/25 10:22:01;;;;;;;10.07;7.28;;;;;;;;;;5031764;28;20205;-69
2022/07/25 10:24:32;;;;;;;9.13;6.68;;;;;;;;;;5032254;28;20474;-69
2022/07/25 10:27:06;;;;;;;9.88;6.90;;;;;;;;;;5030490;28;20220;-69
2022/07/25 10:29:35;;;;;;;7.20;6.57;;;;;;;;;;5030942;28;20213;-70
2022/07/25 10:32:05;;;;;;;7.32;6.75;;;;;;;;;;5030820;28;20431;-69
2022/07/25 10:34:31;;;;;;;11.60;6.97;;;;;;;;;;5030761;28;20220;-69
2022/07/25 10:37:08;;;;;;;11.57;6.95;;;;;;;;;;5030150;28;20221;-69
2022/07/25 10:39:37;;;;;;;8.05;7.32;;;;;;;;;;5030671;28;20250;-70
2022/07/25 10:42:04;;;;;;;8.90;6.88;;;;;;;;;;5031274;28;20513;-70
2022/07/25 10:44:41;;;;;;;7.45;6.95;;;;;;;;;;5031176;28;20552;-70
2022/07/25 10:47:09;;;;;;;7.50;6.80;;;;;;;;;;5030346;28;20209;-69
2022/07/25 10:49:36;;;;;;;7.90;7.25;;;;;;;;;;5030945;28;20535;-69
2022/07/25 10:52:02;;;;;;;7.90;7.13;;;;;;;;;;5030076;28;20255;-70
2022/07/25 10:54:32;;;;;;;8.05;7.45;;;;;;;;;;5030828;28;20221;-70
2022/07/25 10:56:59;;;;;;;7.55;6.90;;;;;;;;;;5031504;28;20213;-70
2022/07/25 10:59:29;;;;;;;8.18;7.50;;;;;;;;;;5033565;28;20250;-70
2022/07/25 11:01:57;;;;;;;8.27;7.57;;;;;;;;;;5033639;28;20464;-69
2022/07/25 11:04:23;;;;;;;7.72;7.03;;;;;;;;;;5034800;28;20439;-69
2022/07/25 11:06:50;;;;;;;6.93;6.53;;;;;;;;;;5032734;28;20237;-70
2022/07/25 11:09:17;;;;;;;7.50;6.90;;;;;;;;;;5031209;28;20246;-70
2022/07/25 11:11:47;;;;;;;7.10;6.55;;;;;;;;;;5032225;28;20232;-70
2022/07/25 11:14:17;;;;;;;7.88;7.10;;;;;;;;;;5032990;28;20533;-70
2022/07/25 11:16:43;;;;;;;7.25;6.55;;;;;;;;;;5033288;28;20562;-69
2022/07/25 11:19:21;;;;;;;7.18;6.68;;;;;;;;;;5033212;28;20250;-70
2022/07/25 11:21:48;;;;;;;8.23;6.90;;;;;;;;;;5033566;28;20254;-71
2022/07/25 11:24:15;;;;;;;6.60;6.00;;;;;;;;;;5033897;28;20219;-70
2022/07/25 11:26:45;;;;;;;7.53;6.13;;;;;;;;;;5033073;28;20217;-70
2022/07/25 11:29:17;;;;;;;7.13;6.40;;;;;;;;;;5032940;28;20213;-69
2022/07/25 11:31:50;;;;;;;6.97;6.10;;;;;;;;;;5034015;28;21099;-70
2022/07/25 11:34:16;;;;;;;7.00;6.47;;;;;;;;;;5033080;28;20258;-70
2022/07/25 11:36:44;;;;;;;6.80;5.47;;;;;;;;;;5032566;28;20505;-70
2022/07/25 11:39:10;;;;;;;5.35;5.10;;;;;;;;;;5033151;28;20281;-69
2022/07/25 11:41:38;;;;;;;8.05;6.35;;;;;;;;;;5048609;27;20250;-69
2022/07/25 11:44:04;;;;;;;6.78;6.07;;;;;;;;;;5033404;28;20217;-70
2022/07/25 11:46:40;;;;;;;8.13;6.50;;;;;;;;;;5034168;28;20221;-70
2022/07/25 11:49:07;;;;;;;5.88;5.45;;;;;;;;;;5032548;28;20622;-70
2022/07/25 11:51:36;;;;;;;4.97;4.78;;;;;;;;;;5033689;28;20237;-69
2022/07/25 11:54:09;;;;;;;9.48;5.80;;;;;;;;;;5033714;28;20532;-70
2022/07/25 11:56:37;;;;;;;5.10;4.80;;;;;;;;;;5033239;28;20238;-70
2022/07/25 11:59:04;;;;;;;4.75;4.50;;;;;;;;;;5032341;28;20217;-70
2022/07/25 12:01:33;;;;;;;4.18;3.80;;;;;;;;;;5033579;28;20213;-70
2022/07/25 12:04:07;;;;;;;6.38;5.78;;;;;;;;;;5033470;28;20297;-70
2022/07/25 12:06:33;;;;;;;8.52;6.45;;;;;;;;;;5032696;28;20233;-69
2022/07/25 12:09:09;;;;;;;6.90;6.40;;;;;;;;;;5032204;28;20209;-69
2022/07/25 12:11:36;;;;;;;6.45;4.95;;;;;;;;;;5032880;28;20608;-69
2022/07/25 12:14:03;;;;;;;5.90;5.50;;;;;;;;;;5033298;28;20236;-70
2022/07/25 12:16:29;;;;;;;8.10;6.13;;;;;;;;;;5032814;28;20236;-70
2022/07/25 12:18:56;;;;;;;6.45;5.88;;;;;;;;;;5032602;28;20508;-70
2022/07/25 12:21:22;;;;;;;6.15;5.75;;;;;;;;;;5032918;28;20209;-69
2022/07/25 12:23:48;;;;;;;6.63;6.15;;;;;;;;;;5032147;28;20436;-70
2022/07/25 12:26:14;;;;;;;6.35;5.95;;;;;;;;;;5032097;28;20225;-70
2022/07/25 12:28:42;;;;;;;6.53;6.10;;;;;;;;;;5032443;28;20220;-70
2022/07/25 12:31:09;;;;;;;6.43;6.03;;;;;;;;;;5031345;28;20232;-70
2022/07/25 12:33:35;;;;;;;6.75;6.05;;;;;;;;;;5031810;28;20727;-70
2022/07/25 12:36:02;;;;;;;6.93;6.22;;;;;;;;;;5032566;28;20217;-70
2022/07/25 12:38:28;;;;;;;7.38;5.88;;;;;;;;;;5031536;28;20250;-69
2022/07/25 12:40:55;;;;;;;6.57;6.07;;;;;;;;;;5031468;28;20517;-69
2022/07/25 12:43:21;;;;;;;9.68;5.40;;;;;;;;;;5048232;27;20201;-69
2022/07/25 12:45:48;;;;;;;6.18;5.57;;;;;;;;;;5032262;28;20476;-69
2022/07/25 12:48:15;;;;;;;8.35;5.82;;;;;;;;;;5031524;28;20492;-69
2022/07/25 12:50:42;;;;;;;7.55;6.72;;;;;;;;;;5031201;28;20213;-69
2022/07/25 12:53:08;;;;;;;6.60;5.90;;;;;;;;;;5031159;28;20270;-70
2022/07/25 12:55:34;;;;;;;6.75;6.13;;;;;;;;;;5031794;28;20213;-70
2022/07/25 12:58:01;;;;;;;5.75;5.25;;;;;;;;;;5031072;28;20214;-70
2022/07/25 13:00:27;;;;;;;6.65;5.78;;;;;;;;;;5031331;28;20254;-70
2022/07/25 13:02:55;;;;;;;6.82;5.55;;;;;;;;;;5032193;28;20240;-70
2022/07/25 13:05:22;;;;;;;5.78;5.35;;;;;;;;;;5027517;28;20296;-70
2022/07/25 13:07:48;;;;;;;6.28;5.63;;;;;;;;;;5032051;28;20544;-70
2022/07/25 13:10:15;;;;;;;6.28;5.70;;;;;;;;;;5031753;28;20213;-69
2022/07/25 13:12:42;;;;;;;6.95;5.43;;;;;;;;;;5031881;28;20224;-69
2022/07/25 13:15:08;;;;;;;7.25;5.53;;;;;;;;;;5032107;28;20213;-69
2022/07/25 13:17:34;;;;;;;6.13;5.72;;;;;;;;;;5031435;28;20213;-69
2022/07/25 13:20:03;;;;;;;6.22;5.63;;;;;;;;;;5035629;27;20213;-70
2022/07/25 13:22:29;;;;;;;5.63;5.32;;;;;;;;;;5031159;28;20232;-71
2022/07/25 13:24:55;;;;;;;7.40;5.72;;;;;;;;;;5031392;28;20221;-70
2022/07/25 13:27:22;;;;;;;5.47;5.07;;;;;;;;;;5031290;28;20419;-70
2022/07/25 13:29:52;;;;;;;6.15;5.65;;;;;;;;;;5030978;28;20541;-71
2022/07/25 13:32:19;;;;;;;5.90;5.38;;;;;;;;;;5030728;28;20435;-71
2022/07/25 13:34:45;;;;;;;5.85;5.35;;;;;;;;;;5031288;28;20220;-71
2022/07/25 13:37:12;;;;;;;5.95;5.40;;;;;;;;;;5030810;28;20445;-70
2022/07/25 13:39:41;;;;;;;5.28;5.07;;;;;;;;;;5031208;28;20540;-69
2022/07/25 13:42:07;;;;;;;5.82;5.18;;;;;;;;;;5047028;27;20205;-69
2022/07/25 13:44:33;;;;;;;6.03;5.50;;;;;;;;;;5030090;28;20517;-70
2022/07/25 13:47:00;;;;;;;6.30;5.72;;;;;;;;;;5029125;28;20224;-70
2022/07/25 13:49:26;;;;;;;5.57;5.10;;;;;;;;;;5031094;28;20246;-71
2022/07/25 13:51:53;;;;;;;5.75;5.35;;;;;;;;;;5031153;28;20255;-71
2022/07/25 13:54:20;;;;;;;6.57;5.10;;;;;;;;;;5030942;28;20229;-70
2022/07/25 13:56:47;;;;;;;5.68;5.18;;;;;;;;;;5030254;28;20213;-70
2022/07/25 13:59:13;;;;;;;5.90;5.40;;;;;;;;;;5030451;28;20254;-71
2022/07/25 14:01:39;;;;;;;5.65;5.18;;;;;;;;;;5030869;28;20216;-70
2022/07/25 14:04:05;;;;;;;5.97;5.43;;;;;;;;;;5031163;28;20213;-70
2022/07/25 14:06:33;;;;;;;5.40;5.00;;;;;;;;;;5031103;28;20225;-70
2022/07/25 14:08:59;;;;;;;6.35;5.63;;;;;;;;;;5030895;28;20385;-70
2022/07/25 14:11:26;;;;;;;6.10;5.57;;;;;;;;;;5031966;28;20474;-70
2022/07/25 14:13:54;;;;;;;7.28;5.50;;;;;;;;;;5031605;28;20537;-70
2022/07/25 14:16:20;;;;;;;6.43;5.97;;;;;;;;;;5027630;28;20213;-70
2022/07/25 14:18:47;;;;;;;6.10;5.40;;;;;;;;;;5029859;28;20213;-70
2022/07/25 14:21:13;;;;;;;6.47;5.80;;;;;;;;;;5031765;28;20217;-70
2022/07/25 14:23:39;;;;;;;8.63;5.93;;;;;;;;;;5030996;28;20283;-70
2022/07/25 14:26:06;;;;;;;6.18;5.60;;;;;;;;;;5030076;28;20390;-71
2022/07/25 14:28:33;;;;;;;7.65;6.40;;;;;;;;;;5030961;28;20243;-71
2022/07/25 14:30:59;;;;;;;6.05;5.55;;;;;;;;;;5031976;28;20559;-70
2022/07/25 14:33:26;;;;;;;6.47;5.85;;;;;;;;;;5034811;27;20676;-70
2022/07/25 14:35:52;;;;;;;7.97;6.07;;;;;;;;;;5034215;28;20443;-70